sensor_id;sensor_type;location;lat;lon;timestamp;temperature;humidity
23873;DHT22;42884;50.718;4.630;2023-07-30T00:01:15;17.40;99.90
23873;DHT22;42884;50.718;4.630;2023-07-30T00:03:41;17.40;99.90
23873;DHT22;42884;50.718;4.630;2023-07-30T00:06:07;17.50;99.90
23873;DHT22;42884;50.718;4.630;2023-07-30T00:08:33;17.60;99.90
23873;DHT22;42884;50.718;4.630;2023-07-30T00:10:58;17.60;99.90
23873;DHT22;42884;50.718;4.630;2023-07-30T00:13:24;17.60;99.90
23873;DHT22;42884;50.718;4.630;2023-07-30T00:15:50;17.70;99.90
23873;DHT22;42884;50.718;4.630;2023-07-30T00:18:16;17.80;99.90
23873;DHT22;42884;50.718;4.630;2023-07-30T00:20:42;17.90;99.90
23873;DHT22;42884;50.718;4.630;2023-07-30T00:23:07;17.90;99.90
23873;DHT22;42884;50.718;4.630;2023-07-30T00:25:33;17.80;99.90
23873;DHT22;42884;50.718;4.630;2023-07-30T00:27:58;17.90;99.90
23873;DHT22;42884;50.718;4.630;2023-07-30T00:30:24;17.90;99.90
23873;DHT22;42884;50.718;4.630;2023-07-30T00:32:50;18.00;99.90
23873;DHT22;42884;50.718;4.630;2023-07-30T00:35:16;17.90;99.90
23873;DHT22;42884;50.718;4.630;2023-07-30T00:37:41;18.00;99.90
23873;DHT22;42884;50.718;4.630;2023-07-30T00:40:07;18.00;99.90
23873;DHT22;42884;50.718;4.630;2023-07-30T00:42:33;18.00;99.90
23873;DHT22;42884;50.718;4.630;2023-07-30T00:44:58;18.00;99.90
23873;DHT22;42884;50.718;4.630;2023-07-30T00:47:24;17.90;99.90
23873;DHT22;42884;50.718;4.630;2023-07-30T00:49:50;17.90;99.90
23873;DHT22;42884;50.718;4.630;2023-07-30T00:52:16;17.90;99.90
23873;DHT22;42884;50.718;4.630;2023-07-30T00:54:43;17.90;99.90
23873;DHT22;42884;50.718;4.630;2023-07-30T00:57:08;17.90;99.90
23873;DHT22;42884;50.718;4.630;2023-07-30T00:59:34;17.90;99.90
23873;DHT22;42884;50.718;4.630;2023-07-30T01:02:00;17.90;99.90
23873;DHT22;42884;50.718;4.630;2023-07-30T01:04:27;17.80;99.90
23873;DHT22;42884;50.718;4.630;2023-07-30T01:06:53;17.80;99.90
23873;DHT22;42884;50.718;4.630;2023-07-30T01:09:18;17.80;99.90
23873;DHT22;42884;50.718;4.630;2023-07-30T01:11:44;17.90;99.90
23873;DHT22;42884;50.718;4.630;2023-07-30T01:14:10;17.90;99.90
23873;DHT22;42884;50.718;4.630;2023-07-30T01:16:35;18.00;99.90
23873;DHT22;42884;50.718;4.630;2023-07-30T01:19:01;18.00;99.90
23873;DHT22;42884;50.718;4.630;2023-07-30T01:21:31;18.00;99.90
23873;DHT22;42884;50.718;4.630;2023-07-30T01:23:57;17.90;99.90
23873;DHT22;42884;50.718;4.630;2023-07-30T01:26:24;17.90;99.90
23873;DHT22;42884;50.718;4.630;2023-07-30T01:28:51;17.90;99.90
23873;DHT22;42884;50.718;4.630;2023-07-30T01:31:19;17.80;99.90
23873;DHT22;42884;50.718;4.630;2023-07-30T01:33:46;17.90;99.90
23873;DHT22;42884;50.718;4.630;2023-07-30T01:36:12;17.70;99.90
23873;DHT22;42884;50.718;4.630;2023-07-30T01:38:40;17.80;99.90
23873;DHT22;42884;50.718;4.630;2023-07-30T01:41:06;17.90;99.90
23873;DHT22;42884;50.718;4.630;2023-07-30T01:43:31;18.00;99.90
23873;DHT22;42884;50.718;4.630;2023-07-30T01:45:57;17.80;99.90
23873;DHT22;42884;50.718;4.630;2023-07-30T01:48:22;17.70;99.90
23873;DHT22;42884;50.718;4.630;2023-07-30T01:50:48;17.70;99.90
23873;DHT22;42884;50.718;4.630;2023-07-30T01:53:14;17.60;99.90
23873;DHT22;42884;50.718;4.630;2023-07-30T01:55:40;17.60;99.90
23873;DHT22;42884;50.718;4.630;2023-07-30T01:58:09;17.40;99.90
23873;DHT22;42884;50.718;4.630;2023-07-30T02:00:35;17.20;99.90
23873;DHT22;42884;50.718;4.630;2023-07-30T02:03:00;17.20;99.90
23873;DHT22;42884;50.718;4.630;2023-07-30T02:05:26;17.30;99.90
23873;DHT22;42884;50.718;4.630;2023-07-30T02:07:52;17.20;99.90
23873;DHT22;42884;50.718;4.630;2023-07-30T02:10:17;17.20;99.90
23873;DHT22;42884;50.718;4.630;2023-07-30T02:12:43;17.20;99.90
23873;DHT22;42884;50.718;4.630;2023-07-30T02:15:08;17.00;99.90
23873;DHT22;42884;50.718;4.630;2023-07-30T02:17:34;16.90;99.90
23873;DHT22;42884;50.718;4.630;2023-07-30T02:19:59;16.80;99.90
23873;DHT22;42884;50.718;4.630;2023-07-30T02:22:25;16.80;99.90
23873;DHT22;42884;50.718;4.630;2023-07-30T02:24:51;16.70;99.90
23873;DHT22;42884;50.718;4.630;2023-07-30T02:27:16;16.80;99.90
23873;DHT22;42884;50.718;4.630;2023-07-30T02:29:42;16.80;99.90
23873;DHT22;42884;50.718;4.630;2023-07-30T02:32:08;16.80;99.90
23873;DHT22;42884;50.718;4.630;2023-07-30T02:34:33;16.70;99.90
23873;DHT22;42884;50.718;4.630;2023-07-30T02:36:59;16.70;99.90
23873;DHT22;42884;50.718;4.630;2023-07-30T02:39:24;16.70;99.90
23873;DHT22;42884;50.718;4.630;2023-07-30T02:41:50;16.80;99.90
23873;DHT22;42884;50.718;4.630;2023-07-30T02:44:16;16.70;99.90
23873;DHT22;42884;50.718;4.630;2023-07-30T02:46:41;16.70;99.90
23873;DHT22;42884;50.718;4.630;2023-07-30T02:49:07;16.70;99.90
23873;DHT22;42884;50.718;4.630;2023-07-30T02:51:33;16.60;99.90
23873;DHT22;42884;50.718;4.630;2023-07-30T02:54:03;16.40;99.90
23873;DHT22;42884;50.718;4.630;2023-07-30T02:56:28;16.50;99.90
23873;DHT22;42884;50.718;4.630;2023-07-30T02:58:54;16.50;99.90
23873;DHT22;42884;50.718;4.630;2023-07-30T03:01:20;16.50;99.90
23873;DHT22;42884;50.718;4.630;2023-07-30T03:03:45;16.60;99.90
23873;DHT22;42884;50.718;4.630;2023-07-30T03:06:11;16.50;99.90
23873;DHT22;42884;50.718;4.630;2023-07-30T03:08:36;16.50;99.90
23873;DHT22;42884;50.718;4.630;2023-07-30T03:11:03;16.30;99.90
23873;DHT22;42884;50.718;4.630;2023-07-30T03:13:29;16.40;99.90
23873;DHT22;42884;50.718;4.630;2023-07-30T03:15:55;16.50;99.90
23873;DHT22;42884;50.718;4.630;2023-07-30T03:18:20;16.50;99.90
23873;DHT22;42884;50.718;4.630;2023-07-30T03:20:46;16.50;99.90
23873;DHT22;42884;50.718;4.630;2023-07-30T03:23:11;16.50;99.90
23873;DHT22;42884;50.718;4.630;2023-07-30T03:25:37;16.60;99.90
23873;DHT22;42884;50.718;4.630;2023-07-30T03:28:03;16.60;99.90
23873;DHT22;42884;50.718;4.630;2023-07-30T03:30:28;16.50;99.90
23873;DHT22;42884;50.718;4.630;2023-07-30T03:32:54;16.50;99.90
23873;DHT22;42884;50.718;4.630;2023-07-30T03:35:19;16.50;99.90
23873;DHT22;42884;50.718;4.630;2023-07-30T03:37:45;16.40;99.90
23873;DHT22;42884;50.718;4.630;2023-07-30T03:40:11;16.50;99.90
23873;DHT22;42884;50.718;4.630;2023-07-30T03:42:36;16.50;99.90
23873;DHT22;42884;50.718;4.630;2023-07-30T03:45:02;16.40;99.90
23873;DHT22;42884;50.718;4.630;2023-07-30T03:47:28;16.40;99.90
23873;DHT22;42884;50.718;4.630;2023-07-30T03:49:53;16.50;99.90
23873;DHT22;42884;50.718;4.630;2023-07-30T03:52:19;16.40;99.90
23873;DHT22;42884;50.718;4.630;2023-07-30T03:54:44;16.40;99.90
23873;DHT22;42884;50.718;4.630;2023-07-30T03:57:10;16.40;99.90
23873;DHT22;42884;50.718;4.630;2023-07-30T03:59:35;16.30;99.90
23873;DHT22;42884;50.718;4.630;2023-07-30T04:02:01;16.20;99.90
23873;DHT22;42884;50.718;4.630;2023-07-30T04:04:27;16.20;99.90
23873;DHT22;42884;50.718;4.630;2023-07-30T04:06:52;16.30;99.90
23873;DHT22;42884;50.718;4.630;2023-07-30T04:09:18;16.30;99.90
23873;DHT22;42884;50.718;4.630;2023-07-30T04:11:44;16.30;99.90
23873;DHT22;42884;50.718;4.630;2023-07-30T04:14:10;16.20;99.90
23873;DHT22;42884;50.718;4.630;2023-07-30T04:16:35;16.20;99.90
23873;DHT22;42884;50.718;4.630;2023-07-30T04:19:01;16.30;99.90
23873;DHT22;42884;50.718;4.630;2023-07-30T04:21:26;16.40;99.90
23873;DHT22;42884;50.718;4.630;2023-07-30T04:23:52;16.30;99.90
23873;DHT22;42884;50.718;4.630;2023-07-30T04:26:18;16.30;99.90
23873;DHT22;42884;50.718;4.630;2023-07-30T04:28:43;16.40;99.90
23873;DHT22;42884;50.718;4.630;2023-07-30T04:31:09;16.50;99.90
23873;DHT22;42884;50.718;4.630;2023-07-30T04:33:34;16.40;99.90
23873;DHT22;42884;50.718;4.630;2023-07-30T04:36:00;16.20;99.90
23873;DHT22;42884;50.718;4.630;2023-07-30T04:38:26;16.20;99.90
23873;DHT22;42884;50.718;4.630;2023-07-30T04:40:51;16.20;99.90
23873;DHT22;42884;50.718;4.630;2023-07-30T04:43:17;16.30;99.90
23873;DHT22;42884;50.718;4.630;2023-07-30T04:45:42;16.40;99.90
23873;DHT22;42884;50.718;4.630;2023-07-30T04:48:08;16.40;99.90
23873;DHT22;42884;50.718;4.630;2023-07-30T04:50:34;16.40;99.90
23873;DHT22;42884;50.718;4.630;2023-07-30T04:52:59;16.30;99.90
23873;DHT22;42884;50.718;4.630;2023-07-30T04:55:25;16.40;99.90
23873;DHT22;42884;50.718;4.630;2023-07-30T04:57:51;16.40;99.90
23873;DHT22;42884;50.718;4.630;2023-07-30T05:00:16;16.40;99.90
23873;DHT22;42884;50.718;4.630;2023-07-30T05:02:42;16.40;99.90
23873;DHT22;42884;50.718;4.630;2023-07-30T05:05:07;16.40;99.90
23873;DHT22;42884;50.718;4.630;2023-07-30T05:07:33;16.50;99.90
23873;DHT22;42884;50.718;4.630;2023-07-30T05:09:59;16.50;99.90
23873;DHT22;42884;50.718;4.630;2023-07-30T05:12:24;16.50;99.90
23873;DHT22;42884;50.718;4.630;2023-07-30T05:14:50;16.50;99.90
23873;DHT22;42884;50.718;4.630;2023-07-30T05:17:15;16.50;99.90
23873;DHT22;42884;50.718;4.630;2023-07-30T05:19:41;16.60;99.90
23873;DHT22;42884;50.718;4.630;2023-07-30T05:22:07;16.70;99.90
23873;DHT22;42884;50.718;4.630;2023-07-30T05:24:33;16.80;99.90
23873;DHT22;42884;50.718;4.630;2023-07-30T05:26:59;16.70;99.90
23873;DHT22;42884;50.718;4.630;2023-07-30T05:29:24;16.60;99.90
23873;DHT22;42884;50.718;4.630;2023-07-30T05:31:50;16.70;99.90
23873;DHT22;42884;50.718;4.630;2023-07-30T05:34:16;16.70;99.90
23873;DHT22;42884;50.718;4.630;2023-07-30T05:36:41;16.70;99.90
23873;DHT22;42884;50.718;4.630;2023-07-30T05:39:07;16.70;99.90
23873;DHT22;42884;50.718;4.630;2023-07-30T05:41:32;16.60;99.90
23873;DHT22;42884;50.718;4.630;2023-07-30T05:43:58;16.70;99.90
23873;DHT22;42884;50.718;4.630;2023-07-30T05:46:23;16.60;99.90
23873;DHT22;42884;50.718;4.630;2023-07-30T05:48:49;16.70;99.90
23873;DHT22;42884;50.718;4.630;2023-07-30T05:51:15;16.80;99.90
23873;DHT22;42884;50.718;4.630;2023-07-30T05:53:40;16.60;99.90
23873;DHT22;42884;50.718;4.630;2023-07-30T05:56:06;16.70;99.90
23873;DHT22;42884;50.718;4.630;2023-07-30T05:58:32;16.60;99.90
23873;DHT22;42884;50.718;4.630;2023-07-30T06:00:57;16.60;99.90
23873;DHT22;42884;50.718;4.630;2023-07-30T06:03:23;16.70;99.90
23873;DHT22;42884;50.718;4.630;2023-07-30T06:05:48;16.80;99.90
23873;DHT22;42884;50.718;4.630;2023-07-30T06:08:14;16.80;99.90
23873;DHT22;42884;50.718;4.630;2023-07-30T06:10:40;16.90;99.90
23873;DHT22;42884;50.718;4.630;2023-07-30T06:13:06;17.00;99.90
23873;DHT22;42884;50.718;4.630;2023-07-30T06:15:32;17.10;99.90
23873;DHT22;42884;50.718;4.630;2023-07-30T06:17:57;17.20;99.90
23873;DHT22;42884;50.718;4.630;2023-07-30T06:20:23;17.10;99.90
23873;DHT22;42884;50.718;4.630;2023-07-30T06:22:48;17.20;99.90
23873;DHT22;42884;50.718;4.630;2023-07-30T06:25:14;17.20;99.90
23873;DHT22;42884;50.718;4.630;2023-07-30T06:27:40;17.30;99.90
23873;DHT22;42884;50.718;4.630;2023-07-30T06:30:05;17.20;99.90
23873;DHT22;42884;50.718;4.630;2023-07-30T06:32:31;17.30;99.90
23873;DHT22;42884;50.718;4.630;2023-07-30T06:34:57;17.30;99.90
23873;DHT22;42884;50.718;4.630;2023-07-30T06:37:22;17.40;99.90
23873;DHT22;42884;50.718;4.630;2023-07-30T06:39:48;17.30;99.90
23873;DHT22;42884;50.718;4.630;2023-07-30T06:42:14;17.40;99.90
23873;DHT22;42884;50.718;4.630;2023-07-30T06:44:39;17.50;99.90
23873;DHT22;42884;50.718;4.630;2023-07-30T06:47:05;17.60;99.90
23873;DHT22;42884;50.718;4.630;2023-07-30T06:49:30;17.60;99.90
23873;DHT22;42884;50.718;4.630;2023-07-30T06:51:59;17.60;99.90
23873;DHT22;42884;50.718;4.630;2023-07-30T06:54:24;17.60;99.90
23873;DHT22;42884;50.718;4.630;2023-07-30T06:56:50;17.70;99.90
23873;DHT22;42884;50.718;4.630;2023-07-30T06:59:16;17.60;99.90
23873;DHT22;42884;50.718;4.630;2023-07-30T07:01:41;17.70;99.90
23873;DHT22;42884;50.718;4.630;2023-07-30T07:04:07;17.80;99.90
23873;DHT22;42884;50.718;4.630;2023-07-30T07:06:32;17.80;99.90
23873;DHT22;42884;50.718;4.630;2023-07-30T07:08:58;17.90;99.90
23873;DHT22;42884;50.718;4.630;2023-07-30T07:11:24;17.90;99.90
23873;DHT22;42884;50.718;4.630;2023-07-30T07:13:49;18.00;99.90
23873;DHT22;42884;50.718;4.630;2023-07-30T07:16:15;18.10;99.90
23873;DHT22;42884;50.718;4.630;2023-07-30T07:18:42;18.20;99.90
23873;DHT22;42884;50.718;4.630;2023-07-30T07:21:09;18.20;99.90
23873;DHT22;42884;50.718;4.630;2023-07-30T07:23:34;18.20;99.90
23873;DHT22;42884;50.718;4.630;2023-07-30T07:26:00;18.00;99.90
23873;DHT22;42884;50.718;4.630;2023-07-30T07:28:26;18.10;99.90
23873;DHT22;42884;50.718;4.630;2023-07-30T07:30:51;18.00;99.90
23873;DHT22;42884;50.718;4.630;2023-07-30T07:33:17;18.20;99.90
23873;DHT22;42884;50.718;4.630;2023-07-30T07:35:42;18.20;99.90
23873;DHT22;42884;50.718;4.630;2023-07-30T07:38:08;18.30;99.90
23873;DHT22;42884;50.718;4.630;2023-07-30T07:40:37;18.40;99.90
23873;DHT22;42884;50.718;4.630;2023-07-30T07:43:05;18.60;99.90
23873;DHT22;42884;50.718;4.630;2023-07-30T07:45:30;18.70;99.90
23873;DHT22;42884;50.718;4.630;2023-07-30T07:47:56;18.80;99.90
23873;DHT22;42884;50.718;4.630;2023-07-30T07:50:22;19.00;99.90
23873;DHT22;42884;50.718;4.630;2023-07-30T07:52:47;19.10;99.90
23873;DHT22;42884;50.718;4.630;2023-07-30T07:55:13;19.30;99.90
23873;DHT22;42884;50.718;4.630;2023-07-30T07:57:38;19.30;99.90
23873;DHT22;42884;50.718;4.630;2023-07-30T08:00:04;19.20;99.90
23873;DHT22;42884;50.718;4.630;2023-07-30T08:02:30;19.30;99.90
23873;DHT22;42884;50.718;4.630;2023-07-30T08:04:56;19.40;99.90
23873;DHT22;42884;50.718;4.630;2023-07-30T08:07:21;19.60;99.90
23873;DHT22;42884;50.718;4.630;2023-07-30T08:09:47;19.70;99.90
23873;DHT22;42884;50.718;4.630;2023-07-30T08:12:13;19.50;99.90
23873;DHT22;42884;50.718;4.630;2023-07-30T08:14:39;19.60;99.90
23873;DHT22;42884;50.718;4.630;2023-07-30T08:17:05;19.80;99.90
23873;DHT22;42884;50.718;4.630;2023-07-30T08:19:30;19.90;99.90
23873;DHT22;42884;50.718;4.630;2023-07-30T08:21:57;20.00;99.90
23873;DHT22;42884;50.718;4.630;2023-07-30T08:24:23;20.10;99.90
23873;DHT22;42884;50.718;4.630;2023-07-30T08:26:49;20.30;99.90
23873;DHT22;42884;50.718;4.630;2023-07-30T08:29:14;20.30;99.90
23873;DHT22;42884;50.718;4.630;2023-07-30T08:31:40;20.20;99.90
23873;DHT22;42884;50.718;4.630;2023-07-30T08:34:06;20.10;99.90
23873;DHT22;42884;50.718;4.630;2023-07-30T08:36:32;20.10;99.90
23873;DHT22;42884;50.718;4.630;2023-07-30T08:38:57;20.10;99.90
23873;DHT22;42884;50.718;4.630;2023-07-30T08:41:23;20.40;99.90
23873;DHT22;42884;50.718;4.630;2023-07-30T08:43:49;20.50;99.90
23873;DHT22;42884;50.718;4.630;2023-07-30T08:46:15;20.60;99.90
23873;DHT22;42884;50.718;4.630;2023-07-30T08:48:41;20.50;99.90
23873;DHT22;42884;50.718;4.630;2023-07-30T08:51:06;20.50;99.90
23873;DHT22;42884;50.718;4.630;2023-07-30T08:53:32;20.70;99.90
23873;DHT22;42884;50.718;4.630;2023-07-30T08:55:58;20.70;99.90
23873;DHT22;42884;50.718;4.630;2023-07-30T08:58:25;21.00;99.90
23873;DHT22;42884;50.718;4.630;2023-07-30T09:00:51;21.20;99.90
23873;DHT22;42884;50.718;4.630;2023-07-30T09:03:18;21.10;99.90
23873;DHT22;42884;50.718;4.630;2023-07-30T09:05:45;21.10;99.90
23873;DHT22;42884;50.718;4.630;2023-07-30T09:08:10;21.10;99.90
23873;DHT22;42884;50.718;4.630;2023-07-30T09:10:36;20.90;99.90
23873;DHT22;42884;50.718;4.630;2023-07-30T09:13:02;21.00;99.90
23873;DHT22;42884;50.718;4.630;2023-07-30T09:15:31;20.80;99.90
23873;DHT22;42884;50.718;4.630;2023-07-30T09:17:57;20.80;99.90
23873;DHT22;42884;50.718;4.630;2023-07-30T09:20:23;20.40;99.90
23873;DHT22;42884;50.718;4.630;2023-07-30T09:22:49;20.40;99.90
23873;DHT22;42884;50.718;4.630;2023-07-30T09:25:17;20.30;99.90
23873;DHT22;42884;50.718;4.630;2023-07-30T09:27:47;20.40;99.90
23873;DHT22;42884;50.718;4.630;2023-07-30T09:30:12;20.20;99.90
23873;DHT22;42884;50.718;4.630;2023-07-30T09:32:38;21.00;99.90
23873;DHT22;42884;50.718;4.630;2023-07-30T09:35:07;21.00;99.90
23873;DHT22;42884;50.718;4.630;2023-07-30T09:37:35;21.20;99.90
23873;DHT22;42884;50.718;4.630;2023-07-30T09:40:01;21.40;99.90
23873;DHT22;42884;50.718;4.630;2023-07-30T09:42:27;21.40;99.90
23873;DHT22;42884;50.718;4.630;2023-07-30T09:44:53;21.30;99.90
23873;DHT22;42884;50.718;4.630;2023-07-30T09:47:18;21.10;99.90
23873;DHT22;42884;50.718;4.630;2023-07-30T09:49:44;21.00;99.90
23873;DHT22;42884;50.718;4.630;2023-07-30T09:52:10;21.00;99.90
23873;DHT22;42884;50.718;4.630;2023-07-30T09:54:36;20.90;99.90
23873;DHT22;42884;50.718;4.630;2023-07-30T09:57:02;21.10;99.90
23873;DHT22;42884;50.718;4.630;2023-07-30T09:59:29;21.00;99.90
23873;DHT22;42884;50.718;4.630;2023-07-30T10:01:55;21.00;99.90
23873;DHT22;42884;50.718;4.630;2023-07-30T10:04:22;21.10;99.90
23873;DHT22;42884;50.718;4.630;2023-07-30T10:09:17;21.90;99.90
23873;DHT22;42884;50.718;4.630;2023-07-30T10:11:45;22.40;99.90
23873;DHT22;42884;50.718;4.630;2023-07-30T10:14:12;22.50;99.90
23873;DHT22;42884;50.718;4.630;2023-07-30T10:16:38;22.30;99.90
23873;DHT22;42884;50.718;4.630;2023-07-30T10:19:04;21.90;99.90
23873;DHT22;42884;50.718;4.630;2023-07-30T10:21:31;21.80;99.90
23873;DHT22;42884;50.718;4.630;2023-07-30T10:24:01;21.60;99.90
23873;DHT22;42884;50.718;4.630;2023-07-30T10:26:27;21.40;99.90
23873;DHT22;42884;50.718;4.630;2023-07-30T10:29:09;21.10;99.90
23873;DHT22;42884;50.718;4.630;2023-07-30T10:31:42;20.90;99.90
23873;DHT22;42884;50.718;4.630;2023-07-30T10:34:08;20.90;99.90
23873;DHT22;42884;50.718;4.630;2023-07-30T10:36:44;21.20;99.90
23873;DHT22;42884;50.718;4.630;2023-07-30T10:41:43;21.90;99.90
23873;DHT22;42884;50.718;4.630;2023-07-30T10:44:17;22.00;99.90
23873;DHT22;42884;50.718;4.630;2023-07-30T10:46:43;21.80;99.90
23873;DHT22;42884;50.718;4.630;2023-07-30T10:49:09;22.20;99.90
23873;DHT22;42884;50.718;4.630;2023-07-30T10:51:35;22.30;99.90
23873;DHT22;42884;50.718;4.630;2023-07-30T10:54:00;21.80;99.90
23873;DHT22;42884;50.718;4.630;2023-07-30T10:56:26;21.60;99.90
23873;DHT22;42884;50.718;4.630;2023-07-30T10:58:52;21.10;99.90
23873;DHT22;42884;50.718;4.630;2023-07-30T11:01:18;20.90;99.90
23873;DHT22;42884;50.718;4.630;2023-07-30T11:03:47;20.60;99.90
23873;DHT22;42884;50.718;4.630;2023-07-30T11:06:13;20.70;99.90
23873;DHT22;42884;50.718;4.630;2023-07-30T11:08:39;20.70;99.90
23873;DHT22;42884;50.718;4.630;2023-07-30T11:11:06;20.90;99.90
23873;DHT22;42884;50.718;4.630;2023-07-30T11:13:39;21.20;99.90
23873;DHT22;42884;50.718;4.630;2023-07-30T11:16:08;21.50;99.90
23873;DHT22;42884;50.718;4.630;2023-07-30T11:18:34;21.90;99.90
23873;DHT22;42884;50.718;4.630;2023-07-30T11:21:03;22.10;99.90
23873;DHT22;42884;50.718;4.630;2023-07-30T11:23:29;22.20;99.90
23873;DHT22;42884;50.718;4.630;2023-07-30T11:25:55;22.20;99.90
23873;DHT22;42884;50.718;4.630;2023-07-30T11:28:30;22.40;99.90
23873;DHT22;42884;50.718;4.630;2023-07-30T11:30:57;22.70;99.90
23873;DHT22;42884;50.718;4.630;2023-07-30T11:33:24;22.90;99.90
23873;DHT22;42884;50.718;4.630;2023-07-30T11:35:50;22.80;99.90
23873;DHT22;42884;50.718;4.630;2023-07-30T11:38:15;22.80;99.90
23873;DHT22;42884;50.718;4.630;2023-07-30T11:40:42;23.00;99.90
23873;DHT22;42884;50.718;4.630;2023-07-30T11:43:08;23.20;99.90
23873;DHT22;42884;50.718;4.630;2023-07-30T11:45:34;23.30;99.90
23873;DHT22;42884;50.718;4.630;2023-07-30T11:48:07;23.40;99.90
23873;DHT22;42884;50.718;4.630;2023-07-30T11:50:51;23.70;99.90
23873;DHT22;42884;50.718;4.630;2023-07-30T11:53:17;23.80;99.90
23873;DHT22;42884;50.718;4.630;2023-07-30T11:55:44;23.90;99.90
23873;DHT22;42884;50.718;4.630;2023-07-30T11:58:10;24.00;99.90
23873;DHT22;42884;50.718;4.630;2023-07-30T12:00:36;23.70;99.90
23873;DHT22;42884;50.718;4.630;2023-07-30T12:03:03;24.20;99.90
23873;DHT22;42884;50.718;4.630;2023-07-30T12:05:35;24.70;99.90
23873;DHT22;42884;50.718;4.630;2023-07-30T12:08:01;25.20;99.90
23873;DHT22;42884;50.718;4.630;2023-07-30T12:10:40;25.50;99.90
23873;DHT22;42884;50.718;4.630;2023-07-30T12:13:10;25.20;99.90
23873;DHT22;42884;50.718;4.630;2023-07-30T12:15:36;24.90;99.90
23873;DHT22;42884;50.718;4.630;2023-07-30T12:18:02;24.80;99.90
23873;DHT22;42884;50.718;4.630;2023-07-30T12:20:28;24.80;99.90
23873;DHT22;42884;50.718;4.630;2023-07-30T12:22:54;25.10;99.90
23873;DHT22;42884;50.718;4.630;2023-07-30T12:25:20;25.30;99.90
23873;DHT22;42884;50.718;4.630;2023-07-30T12:27:45;25.80;99.90
23873;DHT22;42884;50.718;4.630;2023-07-30T12:30:11;26.10;99.90
23873;DHT22;42884;50.718;4.630;2023-07-30T12:32:36;26.20;99.90
23873;DHT22;42884;50.718;4.630;2023-07-30T12:35:02;25.80;99.90
23873;DHT22;42884;50.718;4.630;2023-07-30T12:37:28;25.70;99.90
23873;DHT22;42884;50.718;4.630;2023-07-30T12:39:53;25.30;99.90
23873;DHT22;42884;50.718;4.630;2023-07-30T12:42:19;25.20;99.90
23873;DHT22;42884;50.718;4.630;2023-07-30T12:44:44;25.30;99.90
23873;DHT22;42884;50.718;4.630;2023-07-30T12:47:10;25.70;99.90
23873;DHT22;42884;50.718;4.630;2023-07-30T12:49:36;25.60;99.90
23873;DHT22;42884;50.718;4.630;2023-07-30T12:52:02;25.80;99.90
23873;DHT22;42884;50.718;4.630;2023-07-30T12:54:27;25.90;99.90
23873;DHT22;42884;50.718;4.630;2023-07-30T12:56:53;25.60;99.90
23873;DHT22;42884;50.718;4.630;2023-07-30T12:59:19;25.50;99.90
23873;DHT22;42884;50.718;4.630;2023-07-30T13:01:44;25.40;99.90
23873;DHT22;42884;50.718;4.630;2023-07-30T13:04:10;25.30;99.90
23873;DHT22;42884;50.718;4.630;2023-07-30T13:06:35;26.00;99.90
23873;DHT22;42884;50.718;4.630;2023-07-30T13:09:01;26.60;99.90
23873;DHT22;42884;50.718;4.630;2023-07-30T13:11:26;26.90;99.90
23873;DHT22;42884;50.718;4.630;2023-07-30T13:13:52;26.60;99.90
23873;DHT22;42884;50.718;4.630;2023-07-30T13:16:18;25.80;99.90
23873;DHT22;42884;50.718;4.630;2023-07-30T13:18:43;25.20;99.90
23873;DHT22;42884;50.718;4.630;2023-07-30T13:21:09;25.10;99.90
23873;DHT22;42884;50.718;4.630;2023-07-30T13:23:34;25.20;99.90
23873;DHT22;42884;50.718;4.630;2023-07-30T13:26:00;24.90;99.90
23873;DHT22;42884;50.718;4.630;2023-07-30T13:28:26;25.30;99.90
23873;DHT22;42884;50.718;4.630;2023-07-30T13:30:52;25.80;99.90
23873;DHT22;42884;50.718;4.630;2023-07-30T13:33:18;25.80;99.90
23873;DHT22;42884;50.718;4.630;2023-07-30T13:35:44;26.00;99.90
23873;DHT22;42884;50.718;4.630;2023-07-30T13:38:09;26.30;99.90
23873;DHT22;42884;50.718;4.630;2023-07-30T13:40:35;26.00;99.90
23873;DHT22;42884;50.718;4.630;2023-07-30T13:43:00;25.90;99.90
23873;DHT22;42884;50.718;4.630;2023-07-30T13:45:26;25.80;99.90
23873;DHT22;42884;50.718;4.630;2023-07-30T13:47:52;25.80;99.90
23873;DHT22;42884;50.718;4.630;2023-07-30T13:50:17;25.70;99.90
23873;DHT22;42884;50.718;4.630;2023-07-30T13:52:43;25.70;99.90
23873;DHT22;42884;50.718;4.630;2023-07-30T13:55:09;25.90;99.90
23873;DHT22;42884;50.718;4.630;2023-07-30T13:57:34;26.00;99.40
23873;DHT22;42884;50.718;4.630;2023-07-30T14:00:00;26.00;99.20
23873;DHT22;42884;50.718;4.630;2023-07-30T14:02:25;26.20;99.90
23873;DHT22;42884;50.718;4.630;2023-07-30T14:04:51;26.00;98.90
23873;DHT22;42884;50.718;4.630;2023-07-30T14:07:17;26.00;99.90
23873;DHT22;42884;50.718;4.630;2023-07-30T14:09:43;25.80;99.80
23873;DHT22;42884;50.718;4.630;2023-07-30T14:12:09;25.50;99.90
23873;DHT22;42884;50.718;4.630;2023-07-30T14:14:34;25.40;99.90
23873;DHT22;42884;50.718;4.630;2023-07-30T14:17:00;25.60;99.90
23873;DHT22;42884;50.718;4.630;2023-07-30T14:19:31;25.50;99.90
23873;DHT22;42884;50.718;4.630;2023-07-30T14:21:57;25.50;99.90
23873;DHT22;42884;50.718;4.630;2023-07-30T14:24:22;25.20;99.90
23873;DHT22;42884;50.718;4.630;2023-07-30T14:26:48;25.10;99.90
23873;DHT22;42884;50.718;4.630;2023-07-30T14:29:14;25.30;99.90
23873;DHT22;42884;50.718;4.630;2023-07-30T14:31:39;25.30;99.90
23873;DHT22;42884;50.718;4.630;2023-07-30T14:34:05;25.70;99.90
23873;DHT22;42884;50.718;4.630;2023-07-30T14:36:31;25.90;99.90
23873;DHT22;42884;50.718;4.630;2023-07-30T14:38:56;25.50;99.90
23873;DHT22;42884;50.718;4.630;2023-07-30T14:41:22;25.00;99.90
23873;DHT22;42884;50.718;4.630;2023-07-30T14:43:47;24.80;99.90
23873;DHT22;42884;50.718;4.630;2023-07-30T14:46:13;24.50;99.90
23873;DHT22;42884;50.718;4.630;2023-07-30T14:48:40;24.60;99.90
23873;DHT22;42884;50.718;4.630;2023-07-30T14:51:06;24.60;99.90
23873;DHT22;42884;50.718;4.630;2023-07-30T14:53:32;24.70;99.90
23873;DHT22;42884;50.718;4.630;2023-07-30T14:55:58;24.60;99.90
23873;DHT22;42884;50.718;4.630;2023-07-30T14:58:24;24.60;99.90
23873;DHT22;42884;50.718;4.630;2023-07-30T15:00:49;24.20;99.90
23873;DHT22;42884;50.718;4.630;2023-07-30T15:03:15;23.90;99.90
23873;DHT22;42884;50.718;4.630;2023-07-30T15:05:40;23.40;99.90
23873;DHT22;42884;50.718;4.630;2023-07-30T15:08:06;23.30;99.90
23873;DHT22;42884;50.718;4.630;2023-07-30T15:10:31;23.40;99.90
23873;DHT22;42884;50.718;4.630;2023-07-30T15:12:57;23.30;99.90
23873;DHT22;42884;50.718;4.630;2023-07-30T15:15:23;23.00;99.90
23873;DHT22;42884;50.718;4.630;2023-07-30T15:17:49;22.90;99.90
23873;DHT22;42884;50.718;4.630;2023-07-30T15:20:14;22.60;99.90
23873;DHT22;42884;50.718;4.630;2023-07-30T15:22:40;22.50;99.90
23873;DHT22;42884;50.718;4.630;2023-07-30T15:25:06;22.40;99.90
23873;DHT22;42884;50.718;4.630;2023-07-30T15:27:31;22.30;99.90